Terminal Aerodrome Forecast
Issued by NWS

Home | Current Version | Previous Version | Text Only | Print | Product List | Glossary Off
Versions: 1 2 3 4 5 6 7 8 9 10 11 12 13 14 15 16 17 18 19 20 21 22 23 24 25 26 27 28 29 30 31

000
FTUS43 KLOT 262300
TAFMDW
TAF
KMDW 262337Z 2700/2724 25005KT P6SM SCT025 BKN150
     FM270600 00000KT 4SM BR FEW150
     FM271330 28010KT P6SM SCT150
     FM271700 28012G20KT P6SM BKN045
     FM271900 30017G26KT P6SM BKN045=

USA.gov is the U.S. government's official web portal to all federal, state and local government web resources and services.